sensor_id;sensor_type;location;lat;lon;timestamp;P1;durP1;ratioP1;P2;durP2;ratioP2
22282;SDS011;11310;51.528;21.204;2023-03-16T00:00:08;18.55;;;9.13;;
22282;SDS011;11310;51.528;21.204;2023-03-16T00:05:10;24.95;;;8.77;;
22282;SDS011;11310;51.528;21.204;2023-03-16T00:07:41;19.33;;;7.45;;
22282;SDS011;11310;51.528;21.204;2023-03-16T00:10:11;21.55;;;8.65;;
22282;SDS011;11310;51.528;21.204;2023-03-16T00:12:40;21.63;;;8.38;;
22282;SDS011;11310;51.528;21.204;2023-03-16T00:15:10;22.02;;;8.05;;
22282;SDS011;11310;51.528;21.204;2023-03-16T00:17:40;19.48;;;7.97;;
22282;SDS011;11310;51.528;21.204;2023-03-16T00:20:09;26.67;;;7.82;;
22282;SDS011;11310;51.528;21.204;2023-03-16T00:22:39;17.40;;;7.83;;
22282;SDS011;11310;51.528;21.204;2023-03-16T00:25:11;21.65;;;8.10;;
22282;SDS011;11310;51.528;21.204;2023-03-16T00:27:41;20.80;;;8.00;;
22282;SDS011;11310;51.528;21.204;2023-03-16T00:30:11;17.70;;;7.60;;
22282;SDS011;11310;51.528;21.204;2023-03-16T00:32:40;16.63;;;8.00;;
22282;SDS011;11310;51.528;21.204;2023-03-16T00:35:09;23.83;;;8.30;;
22282;SDS011;11310;51.528;21.204;2023-03-16T00:37:37;16.10;;;7.07;;
22282;SDS011;11310;51.528;21.204;2023-03-16T00:40:10;14.83;;;6.80;;
22282;SDS011;11310;51.528;21.204;2023-03-16T00:42:40;24.50;;;7.70;;
22282;SDS011;11310;51.528;21.204;2023-03-16T00:45:09;18.88;;;7.50;;
22282;SDS011;11310;51.528;21.204;2023-03-16T00:47:38;17.55;;;6.80;;
22282;SDS011;11310;51.528;21.204;2023-03-16T00:50:08;18.17;;;6.78;;
22282;SDS011;11310;51.528;21.204;2023-03-16T00:52:37;20.52;;;7.53;;
22282;SDS011;11310;51.528;21.204;2023-03-16T00:55:06;23.10;;;9.48;;
22282;SDS011;11310;51.528;21.204;2023-03-16T00:57:36;23.80;;;8.20;;
22282;SDS011;11310;51.528;21.204;2023-03-16T01:00:05;19.77;;;7.70;;
22282;SDS011;11310;51.528;21.204;2023-03-16T01:02:38;23.70;;;7.93;;
22282;SDS011;11310;51.528;21.204;2023-03-16T01:05:08;21.63;;;8.18;;
22282;SDS011;11310;51.528;21.204;2023-03-16T01:07:36;22.20;;;8.20;;
22282;SDS011;11310;51.528;21.204;2023-03-16T01:10:06;18.58;;;7.53;;
22282;SDS011;11310;51.528;21.204;2023-03-16T01:12:37;18.15;;;7.35;;
22282;SDS011;11310;51.528;21.204;2023-03-16T01:15:06;19.65;;;7.40;;
22282;SDS011;11310;51.528;21.204;2023-03-16T01:17:36;23.88;;;7.97;;
22282;SDS011;11310;51.528;21.204;2023-03-16T01:20:05;15.10;;;6.78;;
22282;SDS011;11310;51.528;21.204;2023-03-16T01:22:37;16.15;;;6.90;;
22282;SDS011;11310;51.528;21.204;2023-03-16T01:25:08;16.98;;;6.72;;
22282;SDS011;11310;51.528;21.204;2023-03-16T01:27:42;15.90;;;7.15;;
22282;SDS011;11310;51.528;21.204;2023-03-16T01:30:11;20.27;;;7.53;;
22282;SDS011;11310;51.528;21.204;2023-03-16T01:32:40;20.48;;;7.00;;
22282;SDS011;11310;51.528;21.204;2023-03-16T01:37:40;18.30;;;7.45;;
22282;SDS011;11310;51.528;21.204;2023-03-16T01:40:19;14.43;;;6.43;;
22282;SDS011;11310;51.528;21.204;2023-03-16T01:42:58;19.48;;;6.68;;
22282;SDS011;11310;51.528;21.204;2023-03-16T01:48:48;20.50;;;6.95;;
22282;SDS011;11310;51.528;21.204;2023-03-16T01:51:26;15.52;;;6.70;;
22282;SDS011;11310;51.528;21.204;2023-03-16T01:54:00;20.15;;;7.03;;
22282;SDS011;11310;51.528;21.204;2023-03-16T01:56:33;16.15;;;7.28;;
22282;SDS011;11310;51.528;21.204;2023-03-16T01:59:06;16.65;;;7.10;;
22282;SDS011;11310;51.528;21.204;2023-03-16T02:01:39;17.92;;;6.38;;
22282;SDS011;11310;51.528;21.204;2023-03-16T02:04:18;17.95;;;5.97;;
22282;SDS011;11310;51.528;21.204;2023-03-16T02:06:59;14.35;;;6.00;;
22282;SDS011;11310;51.528;21.204;2023-03-16T02:09:30;25.80;;;6.82;;
22282;SDS011;11310;51.528;21.204;2023-03-16T02:12:00;18.17;;;6.93;;
22282;SDS011;11310;51.528;21.204;2023-03-16T02:14:33;19.92;;;6.75;;
22282;SDS011;11310;51.528;21.204;2023-03-16T02:17:01;18.92;;;6.65;;
22282;SDS011;11310;51.528;21.204;2023-03-16T02:19:33;18.75;;;6.47;;
22282;SDS011;11310;51.528;21.204;2023-03-16T02:22:08;19.65;;;6.13;;
22282;SDS011;11310;51.528;21.204;2023-03-16T02:24:39;19.58;;;6.88;;
22282;SDS011;11310;51.528;21.204;2023-03-16T02:27:09;15.88;;;5.63;;
22282;SDS011;11310;51.528;21.204;2023-03-16T02:32:41;14.82;;;6.18;;
22282;SDS011;11310;51.528;21.204;2023-03-16T02:35:11;20.00;;;6.82;;
22282;SDS011;11310;51.528;21.204;2023-03-16T02:37:41;17.75;;;6.20;;
22282;SDS011;11310;51.528;21.204;2023-03-16T02:40:17;16.05;;;5.97;;
22282;SDS011;11310;51.528;21.204;2023-03-16T02:42:53;13.32;;;6.05;;
22282;SDS011;11310;51.528;21.204;2023-03-16T02:45:33;16.10;;;6.23;;
22282;SDS011;11310;51.528;21.204;2023-03-16T02:48:08;15.93;;;5.88;;
22282;SDS011;11310;51.528;21.204;2023-03-16T02:50:44;15.60;;;6.45;;
22282;SDS011;11310;51.528;21.204;2023-03-16T02:53:14;18.00;;;6.32;;
22282;SDS011;11310;51.528;21.204;2023-03-16T02:55:42;14.15;;;5.57;;
22282;SDS011;11310;51.528;21.204;2023-03-16T02:58:12;18.13;;;6.18;;
22282;SDS011;11310;51.528;21.204;2023-03-16T03:00:43;17.48;;;5.82;;
22282;SDS011;11310;51.528;21.204;2023-03-16T03:03:15;17.95;;;7.05;;
22282;SDS011;11310;51.528;21.204;2023-03-16T03:05:44;17.50;;;6.40;;
22282;SDS011;11310;51.528;21.204;2023-03-16T03:08:12;16.40;;;5.97;;
22282;SDS011;11310;51.528;21.204;2023-03-16T03:10:42;16.38;;;5.85;;
22282;SDS011;11310;51.528;21.204;2023-03-16T03:13:11;14.10;;;6.35;;
22282;SDS011;11310;51.528;21.204;2023-03-16T03:15:39;14.93;;;5.95;;
22282;SDS011;11310;51.528;21.204;2023-03-16T03:18:11;15.70;;;6.63;;
22282;SDS011;11310;51.528;21.204;2023-03-16T03:20:40;17.15;;;6.45;;
22282;SDS011;11310;51.528;21.204;2023-03-16T03:23:09;16.38;;;7.05;;
22282;SDS011;11310;51.528;21.204;2023-03-16T03:25:40;18.42;;;6.20;;
22282;SDS011;11310;51.528;21.204;2023-03-16T03:28:09;13.90;;;6.07;;
22282;SDS011;11310;51.528;21.204;2023-03-16T03:30:38;13.77;;;6.30;;
22282;SDS011;11310;51.528;21.204;2023-03-16T03:33:07;20.25;;;7.07;;
22282;SDS011;11310;51.528;21.204;2023-03-16T03:35:37;17.52;;;6.70;;
22282;SDS011;11310;51.528;21.204;2023-03-16T03:38:08;18.30;;;7.45;;
22282;SDS011;11310;51.528;21.204;2023-03-16T03:40:38;20.60;;;7.72;;
22282;SDS011;11310;51.528;21.204;2023-03-16T03:43:07;18.27;;;7.35;;
22282;SDS011;11310;51.528;21.204;2023-03-16T03:45:40;14.80;;;6.05;;
22282;SDS011;11310;51.528;21.204;2023-03-16T03:48:08;17.48;;;7.18;;
22282;SDS011;11310;51.528;21.204;2023-03-16T03:50:38;19.63;;;6.25;;
22282;SDS011;11310;51.528;21.204;2023-03-16T03:53:33;17.00;;;6.85;;
22282;SDS011;11310;51.528;21.204;2023-03-16T03:56:25;21.60;;;7.35;;
22282;SDS011;11310;51.528;21.204;2023-03-16T03:58:53;16.90;;;6.28;;
22282;SDS011;11310;51.528;21.204;2023-03-16T04:01:45;19.52;;;7.18;;
22282;SDS011;11310;51.528;21.204;2023-03-16T04:04:15;18.30;;;7.53;;
22282;SDS011;11310;51.528;21.204;2023-03-16T04:06:45;23.27;;;7.93;;
22282;SDS011;11310;51.528;21.204;2023-03-16T04:09:14;17.50;;;7.10;;
22282;SDS011;11310;51.528;21.204;2023-03-16T04:11:44;22.55;;;8.18;;
22282;SDS011;11310;51.528;21.204;2023-03-16T04:14:13;21.17;;;8.07;;
22282;SDS011;11310;51.528;21.204;2023-03-16T04:16:42;21.45;;;7.70;;
22282;SDS011;11310;51.528;21.204;2023-03-16T04:19:12;18.90;;;7.53;;
22282;SDS011;11310;51.528;21.204;2023-03-16T04:21:41;22.92;;;7.28;;
22282;SDS011;11310;51.528;21.204;2023-03-16T04:24:11;23.02;;;7.18;;
22282;SDS011;11310;51.528;21.204;2023-03-16T04:26:41;21.40;;;7.82;;
22282;SDS011;11310;51.528;21.204;2023-03-16T04:29:11;19.60;;;7.00;;
22282;SDS011;11310;51.528;21.204;2023-03-16T04:31:44;17.42;;;7.03;;
22282;SDS011;11310;51.528;21.204;2023-03-16T04:34:13;24.48;;;8.38;;
22282;SDS011;11310;51.528;21.204;2023-03-16T04:36:42;18.25;;;6.55;;
22282;SDS011;11310;51.528;21.204;2023-03-16T04:39:13;19.13;;;6.75;;
22282;SDS011;11310;51.528;21.204;2023-03-16T04:41:41;16.25;;;6.80;;
22282;SDS011;11310;51.528;21.204;2023-03-16T04:44:16;15.13;;;6.57;;
22282;SDS011;11310;51.528;21.204;2023-03-16T04:46:44;20.25;;;7.90;;
22282;SDS011;11310;51.528;21.204;2023-03-16T04:49:13;24.67;;;8.75;;
22282;SDS011;11310;51.528;21.204;2023-03-16T04:51:43;16.50;;;6.63;;
22282;SDS011;11310;51.528;21.204;2023-03-16T04:54:19;16.80;;;7.25;;
22282;SDS011;11310;51.528;21.204;2023-03-16T04:56:47;17.33;;;6.90;;
22282;SDS011;11310;51.528;21.204;2023-03-16T04:59:34;15.25;;;6.25;;
22282;SDS011;11310;51.528;21.204;2023-03-16T05:02:22;19.58;;;8.73;;
22282;SDS011;11310;51.528;21.204;2023-03-16T05:04:51;20.88;;;7.18;;
22282;SDS011;11310;51.528;21.204;2023-03-16T05:07:21;18.88;;;8.07;;
22282;SDS011;11310;51.528;21.204;2023-03-16T05:09:54;18.15;;;7.22;;
22282;SDS011;11310;51.528;21.204;2023-03-16T05:12:23;18.92;;;7.25;;
22282;SDS011;11310;51.528;21.204;2023-03-16T05:14:57;20.67;;;9.60;;
22282;SDS011;11310;51.528;21.204;2023-03-16T05:17:49;18.00;;;9.05;;
22282;SDS011;11310;51.528;21.204;2023-03-16T05:20:17;23.38;;;10.15;;
22282;SDS011;11310;51.528;21.204;2023-03-16T05:22:52;21.38;;;9.43;;
22282;SDS011;11310;51.528;21.204;2023-03-16T05:25:29;18.55;;;8.80;;
22282;SDS011;11310;51.528;21.204;2023-03-16T05:28:02;19.30;;;9.25;;
22282;SDS011;11310;51.528;21.204;2023-03-16T05:30:43;22.35;;;10.05;;
22282;SDS011;11310;51.528;21.204;2023-03-16T05:33:17;18.98;;;9.50;;
22282;SDS011;11310;51.528;21.204;2023-03-16T05:35:49;24.48;;;10.15;;
22282;SDS011;11310;51.528;21.204;2023-03-16T05:38:20;21.67;;;9.77;;
22282;SDS011;11310;51.528;21.204;2023-03-16T05:40:51;23.98;;;10.35;;
22282;SDS011;11310;51.528;21.204;2023-03-16T05:43:49;21.77;;;10.10;;
22282;SDS011;11310;51.528;21.204;2023-03-16T05:48:51;18.90;;;9.73;;
22282;SDS011;11310;51.528;21.204;2023-03-16T05:51:20;19.88;;;11.60;;
22282;SDS011;11310;51.528;21.204;2023-03-16T05:53:54;22.42;;;13.20;;
22282;SDS011;11310;51.528;21.204;2023-03-16T05:56:45;27.35;;;10.30;;
22282;SDS011;11310;51.528;21.204;2023-03-16T05:59:16;27.88;;;11.50;;
22282;SDS011;11310;51.528;21.204;2023-03-16T06:01:51;19.25;;;9.52;;
22282;SDS011;11310;51.528;21.204;2023-03-16T06:04:20;20.42;;;9.68;;
22282;SDS011;11310;51.528;21.204;2023-03-16T06:06:49;20.85;;;11.23;;
22282;SDS011;11310;51.528;21.204;2023-03-16T06:09:23;20.98;;;10.30;;
22282;SDS011;11310;51.528;21.204;2023-03-16T06:11:54;20.17;;;9.25;;
22282;SDS011;11310;51.528;21.204;2023-03-16T06:14:24;23.73;;;10.83;;
22282;SDS011;11310;51.528;21.204;2023-03-16T06:16:54;21.20;;;9.90;;
22282;SDS011;11310;51.528;21.204;2023-03-16T06:19:23;23.63;;;10.05;;
22282;SDS011;11310;51.528;21.204;2023-03-16T06:21:58;18.95;;;10.15;;
22282;SDS011;11310;51.528;21.204;2023-03-16T06:24:27;23.23;;;10.73;;
22282;SDS011;11310;51.528;21.204;2023-03-16T06:26:57;18.45;;;9.38;;
22282;SDS011;11310;51.528;21.204;2023-03-16T06:29:32;26.38;;;10.70;;
22282;SDS011;11310;51.528;21.204;2023-03-16T06:32:02;19.38;;;9.70;;
22282;SDS011;11310;51.528;21.204;2023-03-16T06:34:31;22.58;;;9.82;;
22282;SDS011;11310;51.528;21.204;2023-03-16T06:37:03;22.65;;;8.82;;
22282;SDS011;11310;51.528;21.204;2023-03-16T06:39:32;19.30;;;9.15;;
22282;SDS011;11310;51.528;21.204;2023-03-16T06:42:02;19.63;;;9.55;;
22282;SDS011;11310;51.528;21.204;2023-03-16T06:47:06;16.88;;;8.73;;
22282;SDS011;11310;51.528;21.204;2023-03-16T06:49:36;19.73;;;8.57;;
22282;SDS011;11310;51.528;21.204;2023-03-16T06:52:13;18.95;;;8.63;;
22282;SDS011;11310;51.528;21.204;2023-03-16T06:54:42;20.25;;;8.30;;
22282;SDS011;11310;51.528;21.204;2023-03-16T06:57:12;17.27;;;8.40;;
22282;SDS011;11310;51.528;21.204;2023-03-16T06:59:42;23.27;;;8.52;;
22282;SDS011;11310;51.528;21.204;2023-03-16T07:02:11;17.45;;;8.73;;
22282;SDS011;11310;51.528;21.204;2023-03-16T07:04:42;17.15;;;7.20;;
22282;SDS011;11310;51.528;21.204;2023-03-16T07:07:11;21.98;;;8.32;;
22282;SDS011;11310;51.528;21.204;2023-03-16T07:09:39;16.25;;;8.00;;
22282;SDS011;11310;51.528;21.204;2023-03-16T07:12:08;19.88;;;8.27;;
22282;SDS011;11310;51.528;21.204;2023-03-16T07:14:38;18.00;;;7.43;;
22282;SDS011;11310;51.528;21.204;2023-03-16T07:17:10;19.33;;;7.53;;
22282;SDS011;11310;51.528;21.204;2023-03-16T07:19:39;22.48;;;7.40;;
22282;SDS011;11310;51.528;21.204;2023-03-16T07:22:08;16.77;;;6.85;;
22282;SDS011;11310;51.528;21.204;2023-03-16T07:24:38;17.98;;;5.93;;
22282;SDS011;11310;51.528;21.204;2023-03-16T07:27:08;16.35;;;6.85;;
22282;SDS011;11310;51.528;21.204;2023-03-16T07:29:40;18.50;;;7.43;;
22282;SDS011;11310;51.528;21.204;2023-03-16T07:32:08;16.50;;;6.60;;
22282;SDS011;11310;51.528;21.204;2023-03-16T07:34:38;18.35;;;6.57;;
22282;SDS011;11310;51.528;21.204;2023-03-16T07:37:08;20.15;;;7.38;;
22282;SDS011;11310;51.528;21.204;2023-03-16T07:39:37;16.55;;;7.10;;
22282;SDS011;11310;51.528;21.204;2023-03-16T07:42:15;19.15;;;7.00;;
22282;SDS011;11310;51.528;21.204;2023-03-16T07:45:04;14.70;;;6.25;;
22282;SDS011;11310;51.528;21.204;2023-03-16T07:47:34;17.83;;;6.70;;
22282;SDS011;11310;51.528;21.204;2023-03-16T07:50:11;17.40;;;6.32;;
22282;SDS011;11310;51.528;21.204;2023-03-16T07:52:44;16.73;;;6.55;;
22282;SDS011;11310;51.528;21.204;2023-03-16T07:55:13;13.00;;;5.53;;
22282;SDS011;11310;51.528;21.204;2023-03-16T07:57:43;18.30;;;5.97;;
22282;SDS011;11310;51.528;21.204;2023-03-16T08:00:20;12.52;;;5.25;;
22282;SDS011;11310;51.528;21.204;2023-03-16T08:02:50;13.98;;;5.13;;
22282;SDS011;11310;51.528;21.204;2023-03-16T08:05:19;14.20;;;5.20;;
22282;SDS011;11310;51.528;21.204;2023-03-16T08:07:54;14.63;;;5.20;;
22282;SDS011;11310;51.528;21.204;2023-03-16T08:10:26;13.80;;;5.07;;
22282;SDS011;11310;51.528;21.204;2023-03-16T08:13:02;12.43;;;4.78;;
22282;SDS011;11310;51.528;21.204;2023-03-16T08:15:34;11.65;;;4.35;;
22282;SDS011;11310;51.528;21.204;2023-03-16T08:18:09;11.15;;;5.05;;
22282;SDS011;11310;51.528;21.204;2023-03-16T08:20:38;11.70;;;5.32;;
22282;SDS011;11310;51.528;21.204;2023-03-16T08:23:08;11.23;;;4.90;;
22282;SDS011;11310;51.528;21.204;2023-03-16T08:25:40;18.38;;;5.68;;
22282;SDS011;11310;51.528;21.204;2023-03-16T08:28:12;14.00;;;5.43;;
22282;SDS011;11310;51.528;21.204;2023-03-16T08:30:47;11.88;;;4.63;;
22282;SDS011;11310;51.528;21.204;2023-03-16T08:33:36;13.38;;;4.40;;
22282;SDS011;11310;51.528;21.204;2023-03-16T08:36:07;10.80;;;4.60;;
22282;SDS011;11310;51.528;21.204;2023-03-16T08:38:41;9.32;;;4.40;;
22282;SDS011;11310;51.528;21.204;2023-03-16T08:41:26;12.05;;;4.60;;
22282;SDS011;11310;51.528;21.204;2023-03-16T08:43:59;11.60;;;4.53;;
22282;SDS011;11310;51.528;21.204;2023-03-16T08:46:30;13.40;;;4.78;;
22282;SDS011;11310;51.528;21.204;2023-03-16T08:49:00;12.90;;;5.38;;
22282;SDS011;11310;51.528;21.204;2023-03-16T08:51:30;10.88;;;4.18;;
22282;SDS011;11310;51.528;21.204;2023-03-16T08:53:59;16.02;;;4.85;;
22282;SDS011;11310;51.528;21.204;2023-03-16T08:56:28;17.95;;;5.93;;
22282;SDS011;11310;51.528;21.204;2023-03-16T08:58:56;12.50;;;5.95;;
22282;SDS011;11310;51.528;21.204;2023-03-16T09:01:25;11.50;;;5.20;;
22282;SDS011;11310;51.528;21.204;2023-03-16T09:03:56;10.55;;;5.18;;
22282;SDS011;11310;51.528;21.204;2023-03-16T09:06:26;14.83;;;5.13;;
22282;SDS011;11310;51.528;21.204;2023-03-16T09:08:55;11.90;;;5.30;;
22282;SDS011;11310;51.528;21.204;2023-03-16T09:11:23;38.83;;;12.10;;
22282;SDS011;11310;51.528;21.204;2023-03-16T09:13:54;72.73;;;12.87;;
22282;SDS011;11310;51.528;21.204;2023-03-16T09:16:24;17.25;;;8.65;;
22282;SDS011;11310;51.528;21.204;2023-03-16T09:18:53;26.90;;;10.45;;
22282;SDS011;11310;51.528;21.204;2023-03-16T09:21:23;24.20;;;9.88;;
22282;SDS011;11310;51.528;21.204;2023-03-16T09:23:52;25.13;;;9.13;;
22282;SDS011;11310;51.528;21.204;2023-03-16T09:26:22;30.63;;;10.75;;
22282;SDS011;11310;51.528;21.204;2023-03-16T09:28:51;25.98;;;8.88;;
22282;SDS011;11310;51.528;21.204;2023-03-16T09:31:20;12.30;;;6.90;;
22282;SDS011;11310;51.528;21.204;2023-03-16T09:33:49;13.90;;;6.07;;
22282;SDS011;11310;51.528;21.204;2023-03-16T09:36:18;10.82;;;6.35;;
22282;SDS011;11310;51.528;21.204;2023-03-16T09:38:47;12.63;;;5.85;;
22282;SDS011;11310;51.528;21.204;2023-03-16T09:41:23;14.48;;;8.05;;
22282;SDS011;11310;51.528;21.204;2023-03-16T09:44:02;17.35;;;6.25;;
22282;SDS011;11310;51.528;21.204;2023-03-16T09:46:38;26.17;;;8.25;;
22282;SDS011;11310;51.528;21.204;2023-03-16T09:49:10;48.42;;;7.85;;
22282;SDS011;11310;51.528;21.204;2023-03-16T09:51:43;9.57;;;3.20;;
22282;SDS011;11310;51.528;21.204;2023-03-16T09:54:19;8.23;;;3.35;;
22282;SDS011;11310;51.528;21.204;2023-03-16T09:56:55;9.38;;;3.08;;
22282;SDS011;11310;51.528;21.204;2023-03-16T09:59:25;10.32;;;3.53;;
22282;SDS011;11310;51.528;21.204;2023-03-16T10:01:58;9.40;;;3.45;;
22282;SDS011;11310;51.528;21.204;2023-03-16T10:04:39;8.00;;;2.50;;
22282;SDS011;11310;51.528;21.204;2023-03-16T10:07:22;9.25;;;3.15;;
22282;SDS011;11310;51.528;21.204;2023-03-16T10:10:00;6.40;;;2.38;;
22282;SDS011;11310;51.528;21.204;2023-03-16T10:12:44;7.80;;;2.85;;
22282;SDS011;11310;51.528;21.204;2023-03-16T10:15:16;6.13;;;2.42;;
22282;SDS011;11310;51.528;21.204;2023-03-16T10:17:49;7.15;;;2.30;;
22282;SDS011;11310;51.528;21.204;2023-03-16T10:20:23;8.45;;;3.08;;
22282;SDS011;11310;51.528;21.204;2023-03-16T10:25:29;9.18;;;3.50;;
22282;SDS011;11310;51.528;21.204;2023-03-16T10:28:02;22.83;;;8.50;;
22282;SDS011;11310;51.528;21.204;2023-03-16T10:30:32;38.60;;;11.73;;
22282;SDS011;11310;51.528;21.204;2023-03-16T10:33:03;47.17;;;8.32;;
22282;SDS011;11310;51.528;21.204;2023-03-16T10:35:45;204.40;;;83.03;;
22282;SDS011;11310;51.528;21.204;2023-03-16T10:38:28;163.63;;;47.47;;
22282;SDS011;11310;51.528;21.204;2023-03-16T10:41:13;206.00;;;111.43;;
22282;SDS011;11310;51.528;21.204;2023-03-16T10:43:49;6.05;;;1.95;;
22282;SDS011;11310;51.528;21.204;2023-03-16T10:46:19;6.82;;;2.10;;
22282;SDS011;11310;51.528;21.204;2023-03-16T10:48:52;5.10;;;1.65;;
22282;SDS011;11310;51.528;21.204;2023-03-16T10:51:27;7.30;;;2.00;;
22282;SDS011;11310;51.528;21.204;2023-03-16T10:54:03;6.05;;;1.70;;
22282;SDS011;11310;51.528;21.204;2023-03-16T10:56:38;6.05;;;1.42;;
22282;SDS011;11310;51.528;21.204;2023-03-16T10:59:11;6.35;;;2.10;;
22282;SDS011;11310;51.528;21.204;2023-03-16T11:01:53;5.03;;;1.80;;
22282;SDS011;11310;51.528;21.204;2023-03-16T11:04:22;4.20;;;1.50;;
22282;SDS011;11310;51.528;21.204;2023-03-16T11:06:52;6.50;;;1.70;;
22282;SDS011;11310;51.528;21.204;2023-03-16T11:09:23;5.53;;;1.75;;
22282;SDS011;11310;51.528;21.204;2023-03-16T11:12:00;3.45;;;1.40;;
22282;SDS011;11310;51.528;21.204;2023-03-16T11:14:41;4.53;;;1.57;;
22282;SDS011;11310;51.528;21.204;2023-03-16T11:17:13;4.18;;;1.95;;
22282;SDS011;11310;51.528;21.204;2023-03-16T11:19:48;7.20;;;1.80;;
22282;SDS011;11310;51.528;21.204;2023-03-16T11:22:21;4.97;;;1.60;;
22282;SDS011;11310;51.528;21.204;2023-03-16T11:24:51;4.18;;;1.90;;
22282;SDS011;11310;51.528;21.204;2023-03-16T11:27:27;7.38;;;2.30;;
22282;SDS011;11310;51.528;21.204;2023-03-16T11:30:03;5.85;;;2.03;;
22282;SDS011;11310;51.528;21.204;2023-03-16T11:32:37;5.03;;;2.13;;
22282;SDS011;11310;51.528;21.204;2023-03-16T11:35:11;5.40;;;1.83;;
22282;SDS011;11310;51.528;21.204;2023-03-16T11:37:45;5.90;;;2.35;;
22282;SDS011;11310;51.528;21.204;2023-03-16T11:40:28;5.72;;;3.22;;
22282;SDS011;11310;51.528;21.204;2023-03-16T11:43:08;6.78;;;2.00;;
22282;SDS011;11310;51.528;21.204;2023-03-16T11:45:46;5.60;;;2.03;;
22282;SDS011;11310;51.528;21.204;2023-03-16T11:48:23;9.27;;;2.58;;
22282;SDS011;11310;51.528;21.204;2023-03-16T11:51:07;6.00;;;1.83;;
22282;SDS011;11310;51.528;21.204;2023-03-16T11:53:49;7.43;;;2.63;;
22282;SDS011;11310;51.528;21.204;2023-03-16T11:56:28;7.88;;;1.92;;
22282;SDS011;11310;51.528;21.204;2023-03-16T12:05:16;9.52;;;4.25;;
22282;SDS011;11310;51.528;21.204;2023-03-16T12:07:52;6.63;;;2.72;;
22282;SDS011;11310;51.528;21.204;2023-03-16T12:10:35;5.95;;;2.15;;
22282;SDS011;11310;51.528;21.204;2023-03-16T12:13:13;5.53;;;2.20;;
22282;SDS011;11310;51.528;21.204;2023-03-16T12:15:58;3.00;;;1.63;;
22282;SDS011;11310;51.528;21.204;2023-03-16T12:18:34;5.80;;;1.70;;
22282;SDS011;11310;51.528;21.204;2023-03-16T12:21:09;5.28;;;1.80;;
22282;SDS011;11310;51.528;21.204;2023-03-16T12:23:42;6.50;;;2.03;;
22282;SDS011;11310;51.528;21.204;2023-03-16T12:26:18;5.63;;;1.85;;
22282;SDS011;11310;51.528;21.204;2023-03-16T12:28:50;4.50;;;1.90;;
22282;SDS011;11310;51.528;21.204;2023-03-16T12:31:23;4.97;;;2.17;;
22282;SDS011;11310;51.528;21.204;2023-03-16T12:36:41;4.30;;;1.98;;
22282;SDS011;11310;51.528;21.204;2023-03-16T12:39:31;8.23;;;2.60;;
22282;SDS011;11310;51.528;21.204;2023-03-16T12:42:20;6.20;;;2.10;;
22282;SDS011;11310;51.528;21.204;2023-03-16T12:44:59;10.60;;;2.58;;
22282;SDS011;11310;51.528;21.204;2023-03-16T12:47:35;9.55;;;3.25;;
22282;SDS011;11310;51.528;21.204;2023-03-16T12:50:11;6.32;;;2.72;;
22282;SDS011;11310;51.528;21.204;2023-03-16T12:52:43;7.47;;;3.08;;
22282;SDS011;11310;51.528;21.204;2023-03-16T12:55:14;9.80;;;3.10;;
22282;SDS011;11310;51.528;21.204;2023-03-16T12:57:45;5.50;;;2.58;;
22282;SDS011;11310;51.528;21.204;2023-03-16T13:00:19;9.13;;;2.70;;
22282;SDS011;11310;51.528;21.204;2023-03-16T13:02:52;9.40;;;2.80;;
22282;SDS011;11310;51.528;21.204;2023-03-16T13:05:27;7.05;;;3.28;;
22282;SDS011;11310;51.528;21.204;2023-03-16T13:08:05;6.05;;;2.33;;
22282;SDS011;11310;51.528;21.204;2023-03-16T13:10:36;6.90;;;2.42;;
22282;SDS011;11310;51.528;21.204;2023-03-16T13:13:09;6.40;;;2.92;;
22282;SDS011;11310;51.528;21.204;2023-03-16T13:15:43;4.88;;;2.00;;
22282;SDS011;11310;51.528;21.204;2023-03-16T13:18:21;5.40;;;2.60;;
22282;SDS011;11310;51.528;21.204;2023-03-16T13:20:55;7.85;;;2.13;;
22282;SDS011;11310;51.528;21.204;2023-03-16T13:23:25;7.20;;;2.20;;
22282;SDS011;11310;51.528;21.204;2023-03-16T13:26:03;7.72;;;2.28;;
22282;SDS011;11310;51.528;21.204;2023-03-16T13:28:40;8.80;;;2.38;;
22282;SDS011;11310;51.528;21.204;2023-03-16T13:31:20;7.43;;;2.25;;
22282;SDS011;11310;51.528;21.204;2023-03-16T13:33:55;6.78;;;2.67;;
22282;SDS011;11310;51.528;21.204;2023-03-16T13:36:26;10.30;;;2.35;;
22282;SDS011;11310;51.528;21.204;2023-03-16T13:38:56;7.30;;;2.60;;
22282;SDS011;11310;51.528;21.204;2023-03-16T13:41:31;17.33;;;5.25;;
22282;SDS011;11310;51.528;21.204;2023-03-16T13:44:00;11.60;;;3.60;;
22282;SDS011;11310;51.528;21.204;2023-03-16T13:46:28;13.98;;;5.07;;
22282;SDS011;11310;51.528;21.204;2023-03-16T13:48:59;10.73;;;4.35;;
22282;SDS011;11310;51.528;21.204;2023-03-16T13:51:28;6.03;;;3.42;;
22282;SDS011;11310;51.528;21.204;2023-03-16T13:54:04;13.52;;;4.45;;
22282;SDS011;11310;51.528;21.204;2023-03-16T13:56:44;10.73;;;3.78;;
22282;SDS011;11310;51.528;21.204;2023-03-16T13:59:13;11.88;;;4.18;;
22282;SDS011;11310;51.528;21.204;2023-03-16T14:01:43;9.00;;;3.58;;
22282;SDS011;11310;51.528;21.204;2023-03-16T14:04:15;11.73;;;4.38;;
22282;SDS011;11310;51.528;21.204;2023-03-16T14:06:50;8.48;;;3.90;;
22282;SDS011;11310;51.528;21.204;2023-03-16T14:09:22;12.05;;;5.40;;
22282;SDS011;11310;51.528;21.204;2023-03-16T14:11:55;9.45;;;4.43;;
22282;SDS011;11310;51.528;21.204;2023-03-16T14:14:24;18.67;;;7.32;;
22282;SDS011;11310;51.528;21.204;2023-03-16T14:16:59;14.30;;;5.80;;
22282;SDS011;11310;51.528;21.204;2023-03-16T14:19:35;18.95;;;8.45;;
22282;SDS011;11310;51.528;21.204;2023-03-16T14:22:10;15.50;;;6.63;;
22282;SDS011;11310;51.528;21.204;2023-03-16T14:24:41;16.95;;;8.20;;
22282;SDS011;11310;51.528;21.204;2023-03-16T14:27:15;19.23;;;7.47;;
22282;SDS011;11310;51.528;21.204;2023-03-16T14:29:49;20.65;;;10.05;;
22282;SDS011;11310;51.528;21.204;2023-03-16T14:32:23;21.58;;;8.23;;
22282;SDS011;11310;51.528;21.204;2023-03-16T14:35:13;18.30;;;7.88;;
22282;SDS011;11310;51.528;21.204;2023-03-16T14:37:44;28.92;;;13.20;;
22282;SDS011;11310;51.528;21.204;2023-03-16T14:40:22;23.30;;;9.18;;
22282;SDS011;11310;51.528;21.204;2023-03-16T14:42:54;27.92;;;9.48;;
22282;SDS011;11310;51.528;21.204;2023-03-16T14:45:27;18.80;;;8.65;;
22282;SDS011;11310;51.528;21.204;2023-03-16T14:48:00;15.90;;;7.93;;
22282;SDS011;11310;51.528;21.204;2023-03-16T14:50:34;22.42;;;10.25;;
22282;SDS011;11310;51.528;21.204;2023-03-16T14:53:02;22.55;;;9.10;;
22282;SDS011;11310;51.528;21.204;2023-03-16T14:55:33;24.63;;;8.18;;
22282;SDS011;11310;51.528;21.204;2023-03-16T14:58:02;27.02;;;8.32;;
22282;SDS011;11310;51.528;21.204;2023-03-16T15:00:31;42.78;;;12.93;;
22282;SDS011;11310;51.528;21.204;2023-03-16T15:03:12;33.28;;;9.40;;
22282;SDS011;11310;51.528;21.204;2023-03-16T15:05:46;45.63;;;10.10;;
22282;SDS011;11310;51.528;21.204;2023-03-16T15:08:17;38.90;;;10.57;;
22282;SDS011;11310;51.528;21.204;2023-03-16T15:10:53;25.85;;;6.90;;
22282;SDS011;11310;51.528;21.204;2023-03-16T15:13:24;52.08;;;12.65;;
22282;SDS011;11310;51.528;21.204;2023-03-16T15:16:19;55.50;;;13.60;;
22282;SDS011;11310;51.528;21.204;2023-03-16T15:18:49;39.67;;;9.43;;
22282;SDS011;11310;51.528;21.204;2023-03-16T15:21:20;55.30;;;12.52;;
22282;SDS011;11310;51.528;21.204;2023-03-16T15:23:52;36.65;;;8.68;;